createdAt,value
2023-04-14T00:00:13.896Z,93444.31
2023-04-14T00:02:42.419Z,93438.41
2023-04-14T00:05:11.900Z,93448.69
2023-04-14T00:07:41.829Z,93442.84
2023-04-14T00:10:11.370Z,93441.38
2023-04-14T00:12:39.829Z,93439.00
2023-04-14T00:15:09.919Z,93440.84
2023-04-14T00:17:38.470Z,93435.09
2023-04-14T00:20:08.595Z,93435.09
2023-04-14T00:22:37.405Z,93428.78
2023-04-14T00:25:08.096Z,93432.31
2023-04-14T00:27:36.775Z,93422.03
2023-04-14T00:30:06.385Z,93432.59
2023-04-14T00:32:35.058Z,93426.56
2023-04-14T00:35:04.281Z,93439.25
2023-04-14T00:37:33.014Z,93424.59
2023-04-14T00:40:01.480Z,93428.44
2023-04-14T00:42:31.990Z,93418.06
2023-04-14T00:45:00.613Z,93424.72
2023-04-14T00:47:29.189Z,93418.75
2023-04-14T00:49:58.321Z,93428.00
2023-04-14T00:52:27.466Z,93409.88
2023-04-14T00:54:56.047Z,93401.50
2023-04-14T00:57:24.559Z,93406.53
2023-04-14T00:59:55.138Z,93408.00
2023-04-14T01:02:24.178Z,93413.78
2023-04-14T01:04:54.858Z,93411.56
2023-04-14T01:07:25.652Z,93406.91
2023-04-14T01:09:57.297Z,93409.81
2023-04-14T01:12:58.754Z,93428.72
2023-04-14T01:15:36.931Z,93407.66
2023-04-14T01:18:27.003Z,93411.94
2023-04-14T01:21:09.266Z,93411.41
2023-04-14T01:23:42.423Z,93408.84
2023-04-14T01:26:27.383Z,93397.34
2023-04-14T01:29:32.411Z,93413.09
2023-04-14T01:32:09.796Z,93408.31
2023-04-14T01:34:49.488Z,93407.19
2023-04-14T01:37:31.274Z,93400.72
2023-04-14T01:40:08.035Z,93402.84
2023-04-14T01:42:41.382Z,93410.34
2023-04-14T01:45:19.593Z,93404.06
2023-04-14T01:47:50.991Z,93395.00
2023-04-14T01:50:21.910Z,93409.41
2023-04-14T01:52:55.175Z,93398.91
2023-04-14T01:55:28.730Z,93393.25
2023-04-14T01:57:59.224Z,93393.97
2023-04-14T02:00:28.733Z,93403.84
2023-04-14T02:02:59.589Z,93402.41
2023-04-14T02:05:30.471Z,93403.00
2023-04-14T02:08:01.641Z,93405.09
2023-04-14T02:10:31.592Z,93407.00
2023-04-14T02:13:02.133Z,93395.00
2023-04-14T02:15:33.612Z,93408.13
2023-04-14T02:18:07.434Z,93406.78
2023-04-14T02:20:42.629Z,93405.03
2023-04-14T02:23:32.828Z,93399.03
2023-04-14T02:26:09.332Z,93392.22
2023-04-14T02:28:47.377Z,93401.59
2023-04-14T02:31:23.880Z,93383.13
2023-04-14T02:33:57.600Z,93391.00
2023-04-14T02:36:33.750Z,93394.50
2023-04-14T02:39:11.682Z,93390.66
2023-04-14T02:41:44.583Z,93371.59
2023-04-14T02:44:20.586Z,93392.59
2023-04-14T02:47:03.787Z,93380.28
2023-04-14T02:49:37.337Z,93377.94
2023-04-14T02:52:08.331Z,93383.53
2023-04-14T02:54:41.033Z,93373.06
2023-04-14T02:57:10.798Z,93373.84
2023-04-14T02:59:42.878Z,93372.56
2023-04-14T03:02:13.918Z,93368.09
2023-04-14T03:04:44.870Z,93362.56
2023-04-14T03:07:15.437Z,93372.69
2023-04-14T03:09:44.672Z,93359.94
2023-04-14T03:12:16.651Z,93361.72
2023-04-14T03:14:46.566Z,93363.16
2023-04-14T03:17:18.477Z,93355.75
2023-04-14T03:19:50.653Z,93346.09
2023-04-14T03:22:22.151Z,93332.53
2023-04-14T03:24:50.900Z,93317.97
2023-04-14T03:30:13.535Z,93328.06
2023-04-14T03:32:44.537Z,93322.44
2023-04-14T03:35:16.741Z,93324.44
2023-04-14T03:37:47.715Z,93333.25
2023-04-14T03:40:17.520Z,93328.34
2023-04-14T03:42:48.806Z,93318.94
2023-04-14T03:45:17.717Z,93322.91
2023-04-14T03:47:46.251Z,93325.88
2023-04-14T03:50:21.182Z,93323.25
2023-04-14T03:52:52.748Z,93326.72
2023-04-14T03:55:21.763Z,93309.13
2023-04-14T03:57:51.788Z,93316.78
2023-04-14T04:00:21.821Z,93308.44
2023-04-14T04:02:52.015Z,93318.13
2023-04-14T04:05:22.696Z,93314.28
2023-04-14T04:07:54.510Z,93314.59
2023-04-14T04:10:24.223Z,93335.59
2023-04-14T04:12:54.765Z,93326.75
2023-04-14T04:15:23.700Z,93324.19
2023-04-14T04:18:18.105Z,93327.38
2023-04-14T04:20:50.535Z,93333.09
2023-04-14T04:23:22.848Z,93325.00
2023-04-14T04:25:52.975Z,93333.94
2023-04-14T04:28:22.168Z,93342.94
2023-04-14T04:30:53.817Z,93337.00
2023-04-14T04:33:47.723Z,93349.81
2023-04-14T04:36:19.129Z,93358.00
2023-04-14T04:38:49.845Z,93359.88
2023-04-14T04:41:25.982Z,93355.97
2023-04-14T04:43:54.499Z,93359.44
2023-04-14T04:46:47.549Z,93335.38
2023-04-14T04:49:16.076Z,93324.31
2023-04-14T04:51:46.317Z,93332.97
2023-04-14T04:54:15.168Z,93322.22
2023-04-14T04:56:43.828Z,93317.47
2023-04-14T04:59:12.580Z,93314.56
2023-04-14T05:01:41.056Z,93316.38
2023-04-14T05:04:09.644Z,93316.59
2023-04-14T05:06:38.627Z,93311.84
2023-04-14T05:09:09.011Z,93299.47
2023-04-14T05:11:37.780Z,93303.13
2023-04-14T05:14:18.268Z,93311.56
2023-04-14T05:17:12.127Z,93311.28
2023-04-14T05:20:12.505Z,93281.44
2023-04-14T05:22:40.987Z,93307.00
2023-04-14T05:25:11.263Z,93286.00
2023-04-14T05:27:39.788Z,93297.31
2023-04-14T05:30:10.062Z,93287.44
2023-04-14T05:32:38.639Z,93284.00
2023-04-14T05:35:07.594Z,93276.84
2023-04-14T05:37:36.344Z,93279.41
2023-04-14T05:40:05.637Z,93286.44
2023-04-14T05:42:35.511Z,93280.06
2023-04-14T05:45:04.238Z,93276.31
2023-04-14T05:47:33.054Z,93266.25
2023-04-14T05:50:03.856Z,93258.78
2023-04-14T05:52:32.389Z,93263.81
2023-04-14T05:55:01.086Z,93260.53
2023-04-14T05:57:29.534Z,93252.16
2023-04-14T05:59:59.408Z,93262.56
2023-04-14T06:02:27.924Z,93247.81
2023-04-14T06:04:57.459Z,93241.72
2023-04-14T06:07:26.012Z,93229.47
2023-04-14T06:09:54.626Z,93231.13
2023-04-14T06:12:23.117Z,93223.50
2023-04-14T06:14:51.580Z,93220.81
2023-04-14T06:17:21.495Z,93215.81
2023-04-14T06:19:49.966Z,93209.84
2023-04-14T06:22:20.633Z,93209.75
2023-04-14T06:24:49.294Z,93183.00
2023-04-14T06:27:18.224Z,93193.44
2023-04-14T06:29:46.695Z,93198.09
2023-04-14T06:32:15.253Z,93199.69
2023-04-14T06:34:45.155Z,93182.22
2023-04-14T06:37:13.610Z,93172.50
2023-04-14T06:39:42.149Z,93177.19
2023-04-14T06:42:13.109Z,93158.66
2023-04-14T06:44:41.762Z,93153.81
2023-04-14T06:47:10.285Z,93148.94
2023-04-14T06:49:38.697Z,93165.78
2023-04-14T06:52:08.680Z,93147.06
2023-04-14T06:54:37.228Z,93153.88
2023-04-14T06:57:05.673Z,93126.25
2023-04-14T06:59:34.109Z,93147.09
2023-04-14T07:02:02.686Z,93127.44
2023-04-14T07:04:31.248Z,93151.47
2023-04-14T07:07:02.737Z,93141.47
2023-04-14T07:09:32.618Z,93164.09
2023-04-14T07:12:01.493Z,93146.50
2023-04-14T07:14:33.189Z,93117.00
2023-04-14T07:17:01.755Z,93152.25
2023-04-14T07:19:30.326Z,93128.28
2023-04-14T07:21:58.748Z,93135.03
2023-04-14T07:24:27.258Z,93127.03
2023-04-14T07:27:00.003Z,93120.75
2023-04-14T07:29:29.306Z,93144.69
2023-04-14T07:31:57.758Z,93143.16
2023-04-14T07:34:26.273Z,93118.94
2023-04-14T07:36:54.776Z,93124.41
2023-04-14T07:39:24.484Z,93116.53
2023-04-14T07:41:53.018Z,93106.41
2023-04-14T07:44:22.798Z,93112.34
2023-04-14T07:46:51.398Z,93089.75
2023-04-14T07:49:19.947Z,93081.31
2023-04-14T07:51:48.468Z,93082.84
2023-04-14T07:54:17.133Z,93072.56
2023-04-14T07:56:45.960Z,93079.38
2023-04-14T07:59:14.395Z,93074.91
2023-04-14T08:01:44.390Z,93070.16
2023-04-14T08:04:13.078Z,93059.38
2023-04-14T08:06:41.965Z,93066.44
2023-04-14T08:09:10.471Z,93079.63
2023-04-14T08:11:38.960Z,93077.22
2023-04-14T08:14:07.421Z,93079.56
2023-04-14T08:16:36.905Z,93087.72
2023-04-14T08:19:07.085Z,93088.72
2023-04-14T08:21:35.763Z,93074.22
2023-04-14T08:24:04.343Z,93082.47
2023-04-14T08:26:32.823Z,93105.28
2023-04-14T08:29:01.620Z,93110.00
2023-04-14T08:31:30.589Z,93100.78
2023-04-14T08:33:59.076Z,93100.38
2023-04-14T08:36:28.929Z,93132.47
2023-04-14T08:38:59.708Z,93115.00
2023-04-14T08:41:30.905Z,93101.91
2023-04-14T08:43:59.450Z,93122.72
2023-04-14T08:46:29.505Z,93137.38
2023-04-14T08:49:05.333Z,93133.38
2023-04-14T08:51:37.694Z,93127.06
2023-04-14T08:54:12.017Z,93083.84
2023-04-14T08:56:42.652Z,93092.00
2023-04-14T08:59:12.570Z,93081.44
2023-04-14T09:01:41.715Z,93118.25
2023-04-14T09:04:10.803Z,93091.84
2023-04-14T09:06:41.690Z,93079.91
2023-04-14T09:09:11.018Z,93102.41
2023-04-14T09:11:40.101Z,93088.81
2023-04-14T09:14:10.082Z,93098.38
2023-04-14T09:17:03.208Z,93089.44
2023-04-14T09:19:32.482Z,93097.94
2023-04-14T09:22:02.371Z,93093.88
2023-04-14T09:24:34.130Z,93109.47
2023-04-14T09:27:05.126Z,93141.66
2023-04-14T09:29:34.141Z,93094.09
2023-04-14T09:32:02.995Z,93075.41
2023-04-14T09:34:32.365Z,93141.72
2023-04-14T09:37:04.905Z,93102.22
2023-04-14T09:39:33.607Z,93113.72
2023-04-14T09:42:02.849Z,93115.47
2023-04-14T09:44:31.846Z,93163.09
2023-04-14T09:47:02.195Z,93123.78
2023-04-14T09:49:31.167Z,93140.84
2023-04-14T09:52:06.349Z,93147.91
2023-04-14T09:54:35.183Z,93149.56
2023-04-14T09:57:04.567Z,93185.91
2023-04-14T09:59:35.169Z,93160.75
2023-04-14T10:02:10.997Z,93171.25
2023-04-14T10:04:39.807Z,93156.28
2023-04-14T10:07:12.231Z,93169.59
2023-04-14T10:09:41.720Z,93182.75
2023-04-14T10:12:13.422Z,93200.28
2023-04-14T10:14:42.719Z,93199.53
2023-04-14T10:17:11.974Z,93247.56
2023-04-14T10:19:40.771Z,93232.78
2023-04-14T10:22:11.391Z,93246.75
2023-04-14T10:24:41.598Z,93277.34
2023-04-14T10:27:10.336Z,93309.53
2023-04-14T10:29:42.413Z,93326.69
2023-04-14T10:32:17.685Z,93334.81
2023-04-14T10:35:00.745Z,93363.75
2023-04-14T10:37:30.721Z,93379.47
2023-04-14T10:40:01.181Z,93366.19
2023-04-14T10:42:32.911Z,93410.31
2023-04-14T10:45:07.722Z,93418.91
2023-04-14T10:47:41.974Z,93442.47
2023-04-14T10:50:15.931Z,93447.88
2023-04-14T10:52:54.211Z,93448.78
2023-04-14T10:55:26.886Z,93476.16
2023-04-14T10:58:06.239Z,93476.06
2023-04-14T11:01:00.334Z,93498.09
2023-04-14T11:03:33.312Z,93492.03
2023-04-14T11:06:53.607Z,93477.06
2023-04-14T11:09:33.293Z,93501.38
2023-04-14T11:12:23.375Z,93502.75
2023-04-14T11:14:57.081Z,93537.34
2023-04-14T11:17:30.339Z,93501.91
2023-04-14T11:19:59.332Z,93503.97
2023-04-14T11:22:41.657Z,93535.53
2023-04-14T11:25:14.343Z,93540.16
2023-04-14T11:27:44.134Z,93546.19
2023-04-14T11:30:17.236Z,93558.84
2023-04-14T11:32:51.352Z,93556.28
2023-04-14T11:35:21.211Z,93573.94
2023-04-14T11:37:49.732Z,93578.09
2023-04-14T11:40:19.735Z,93602.16
2023-04-14T11:42:53.553Z,93617.09
2023-04-14T11:45:22.343Z,93615.25
2023-04-14T11:48:02.038Z,93617.38
2023-04-14T11:50:33.555Z,93619.50
2023-04-14T11:53:02.999Z,93636.31
2023-04-14T11:55:32.896Z,93636.44
2023-04-14T11:58:02.294Z,93640.94
2023-04-14T12:00:30.991Z,93632.84
2023-04-14T12:03:03.365Z,93625.75
2023-04-14T12:05:33.898Z,93656.13
2023-04-14T12:08:05.019Z,93643.38
2023-04-14T12:10:36.017Z,93620.19
2023-04-14T12:13:29.307Z,93621.03
2023-04-14T12:15:57.889Z,93617.88
2023-04-14T12:18:26.727Z,93621.50
2023-04-14T12:20:57.326Z,93592.41
2023-04-14T12:23:26.097Z,93620.16
2023-04-14T12:25:56.689Z,93606.78
2023-04-14T12:28:27.759Z,93576.97
2023-04-14T12:30:59.310Z,93593.50
2023-04-14T12:33:30.041Z,93583.00
2023-04-14T12:36:03.855Z,93568.28
2023-04-14T12:38:33.028Z,93565.63
2023-04-14T12:41:03.493Z,93565.63
2023-04-14T12:43:34.808Z,93562.69
2023-04-14T12:46:04.701Z,93559.00
2023-04-14T12:48:45.934Z,93543.84
2023-04-14T12:51:16.516Z,93546.38
2023-04-14T12:53:47.594Z,93550.84
2023-04-14T12:56:22.275Z,93547.44
2023-04-14T12:58:51.587Z,93539.84
2023-04-14T13:01:21.859Z,93526.16
2023-04-14T13:03:55.529Z,93536.66
2023-04-14T13:06:26.291Z,93551.91
2023-04-14T13:08:56.725Z,93558.31
2023-04-14T13:11:26.667Z,93555.50
2023-04-14T13:13:55.258Z,93541.13
2023-04-14T13:16:26.160Z,93540.59
2023-04-14T13:19:20.398Z,93520.66
2023-04-14T13:21:48.866Z,93521.97
2023-04-14T13:24:17.350Z,93494.44
2023-04-14T13:26:47.224Z,93538.00
2023-04-14T13:29:15.889Z,93501.84
2023-04-14T13:31:44.484Z,93489.25
2023-04-14T13:34:13.000Z,93497.94
2023-04-14T13:36:41.446Z,93504.25
2023-04-14T13:39:09.970Z,93454.66
2023-04-14T13:41:38.576Z,93490.75
2023-04-14T13:44:08.460Z,93443.72
2023-04-14T13:46:41.187Z,93434.50
2023-04-14T13:49:09.981Z,93445.22
2023-04-14T13:51:39.788Z,93432.56
2023-04-14T13:54:08.319Z,93422.16
2023-04-14T13:56:36.800Z,93454.66
2023-04-14T13:59:05.400Z,93464.31
2023-04-14T14:01:44.208Z,93439.00
2023-04-14T14:04:12.974Z,93399.47
2023-04-14T14:06:41.554Z,93439.47
2023-04-14T14:09:10.237Z,93464.53
2023-04-14T14:11:42.103Z,93452.38
2023-04-14T14:14:10.520Z,93443.00
2023-04-14T14:16:39.253Z,93439.63
2023-04-14T14:19:11.042Z,93438.31
2023-04-14T14:21:39.486Z,93406.84
2023-04-14T14:24:07.935Z,93437.69
2023-04-14T14:26:36.383Z,93426.84
2023-04-14T14:29:04.881Z,93452.19
2023-04-14T14:31:34.544Z,93456.28
2023-04-14T14:34:03.266Z,93440.56
2023-04-14T14:36:33.316Z,93437.94
2023-04-14T14:39:01.836Z,93433.13
2023-04-14T14:44:30.596Z,93411.69
2023-04-14T14:46:59.409Z,93419.94
2023-04-14T14:49:28.065Z,93438.25
2023-04-14T14:51:57.897Z,93425.84
2023-04-14T14:54:26.273Z,93432.44
2023-04-14T14:56:54.722Z,93467.09
2023-04-14T14:59:23.110Z,93432.66
2023-04-14T15:01:51.643Z,93422.22
2023-04-14T15:04:20.338Z,93438.19
2023-04-14T15:06:48.799Z,93421.22
2023-04-14T15:09:18.647Z,93421.34
2023-04-14T15:11:47.221Z,93426.75
2023-04-14T15:14:15.932Z,93416.91
2023-04-14T15:16:44.494Z,93431.63
2023-04-14T15:19:13.591Z,93411.75
2023-04-14T15:21:42.142Z,93404.00
2023-04-14T15:24:10.711Z,93396.97
2023-04-14T15:26:40.578Z,93420.59
2023-04-14T15:29:09.041Z,93398.88
2023-04-14T15:31:37.530Z,93405.56
2023-04-14T15:34:06.881Z,93385.31
2023-04-14T15:36:35.381Z,93429.81
2023-04-14T15:39:03.877Z,93419.63
2023-04-14T15:41:32.367Z,93429.66
2023-04-14T15:44:02.220Z,93446.28
2023-04-14T15:46:31.119Z,93440.06
2023-04-14T15:48:59.903Z,93420.72
2023-04-14T15:51:28.837Z,93422.75
2023-04-14T15:53:57.307Z,93422.00
2023-04-14T15:56:25.959Z,93432.00
2023-04-14T15:58:54.545Z,93431.00
2023-04-14T16:01:24.331Z,93438.81
2023-04-14T16:03:53.091Z,93419.38
2023-04-14T16:06:21.571Z,93429.31
2023-04-14T16:08:50.098Z,93435.50
2023-04-14T16:11:19.343Z,93424.72
2023-04-14T16:13:47.813Z,93437.47
2023-04-14T16:16:17.815Z,93423.44
2023-04-14T16:18:47.800Z,93430.31
2023-04-14T16:21:16.345Z,93432.19
2023-04-14T16:23:45.594Z,93424.72
2023-04-14T16:26:14.052Z,93436.59
2023-04-14T16:28:42.495Z,93439.22
2023-04-14T16:31:11.057Z,93432.94
2023-04-14T16:33:39.725Z,93437.97
2023-04-14T16:36:09.608Z,93436.41
2023-04-14T16:38:39.463Z,93430.13
2023-04-14T16:41:16.863Z,93429.88
2023-04-14T16:43:45.923Z,93439.94
2023-04-14T16:46:14.479Z,93439.88
2023-04-14T16:48:42.937Z,93431.47
2023-04-14T16:51:12.798Z,93435.25
2023-04-14T16:53:41.351Z,93448.38
2023-04-14T16:56:13.074Z,93436.84
2023-04-14T16:58:41.683Z,93432.13
2023-04-14T17:01:10.217Z,93435.31
2023-04-14T17:03:39.298Z,93437.50
2023-04-14T17:06:08.021Z,93439.63
2023-04-14T17:08:38.067Z,93427.81
2023-04-14T17:11:06.682Z,93440.94
2023-04-14T17:13:35.207Z,93442.00
2023-04-14T17:16:09.006Z,93438.09
2023-04-14T17:18:38.140Z,93445.97
2023-04-14T17:21:07.687Z,93442.84
2023-04-14T17:24:03.206Z,93440.78
2023-04-14T17:26:31.754Z,93438.94
2023-04-14T17:29:25.743Z,93453.34
2023-04-14T17:31:54.533Z,93451.81
2023-04-14T17:34:23.522Z,93453.94
2023-04-14T17:36:52.044Z,93468.13
2023-04-14T17:39:26.721Z,93475.75
2023-04-14T17:41:58.010Z,93476.81
2023-04-14T17:44:33.629Z,93478.22
2023-04-14T17:47:03.436Z,93485.53
2023-04-14T17:49:33.746Z,93487.19
2023-04-14T17:52:27.884Z,93495.13
2023-04-14T17:54:57.714Z,93497.03
2023-04-14T17:57:26.547Z,93513.13
2023-04-14T17:59:55.289Z,93518.97
2023-04-14T18:02:24.163Z,93511.97
2023-04-14T18:04:52.984Z,93517.00
2023-04-14T18:07:21.607Z,93519.69
2023-04-14T18:09:50.018Z,93514.47
2023-04-14T18:12:22.516Z,93519.72
2023-04-14T18:14:51.386Z,93518.38
2023-04-14T18:17:20.499Z,93514.16
2023-04-14T18:19:49.158Z,93512.00
2023-04-14T18:22:17.588Z,93514.31
2023-04-14T18:24:48.596Z,93524.06
2023-04-14T18:29:49.961Z,93521.19
2023-04-14T18:32:18.401Z,93523.34
2023-04-14T18:34:47.054Z,93520.28
2023-04-14T18:37:15.869Z,93524.53
2023-04-14T18:39:44.884Z,93525.81
2023-04-14T18:42:13.869Z,93528.50
2023-04-14T18:44:42.862Z,93525.13
2023-04-14T18:47:12.704Z,93525.41
2023-04-14T18:49:41.160Z,93531.97
2023-04-14T18:52:09.639Z,93528.56
2023-04-14T18:54:38.296Z,93524.63
2023-04-14T18:57:06.907Z,93529.63
2023-04-14T18:59:36.202Z,93526.22
2023-04-14T19:02:05.373Z,93528.06
2023-04-14T19:04:35.876Z,93528.34
2023-04-14T19:07:04.344Z,93518.63
2023-04-14T19:09:33.965Z,93526.75
2023-04-14T19:12:02.367Z,93519.16
2023-04-14T19:14:30.852Z,93517.84
2023-04-14T19:16:59.321Z,93521.22
2023-04-14T19:19:27.739Z,93532.94
2023-04-14T19:21:57.776Z,93531.41
2023-04-14T19:24:26.199Z,93525.91
2023-04-14T19:27:19.454Z,93536.09
2023-04-14T19:29:47.837Z,93524.63
2023-04-14T19:32:16.667Z,93536.38
2023-04-14T19:34:45.260Z,93535.06
2023-04-14T19:37:15.088Z,93534.50
2023-04-14T19:39:43.552Z,93539.72
2023-04-14T19:42:12.021Z,93527.97
2023-04-14T19:44:40.490Z,93531.25
2023-04-14T19:47:09.085Z,93532.09
2023-04-14T19:49:37.595Z,93534.41
2023-04-14T19:52:06.211Z,93528.09
2023-04-14T19:54:37.851Z,93534.84
2023-04-14T19:57:06.660Z,93530.88
2023-04-14T19:59:35.225Z,93533.16
2023-04-14T20:02:05.651Z,93531.09
2023-04-14T20:04:34.879Z,93530.06
2023-04-14T20:07:03.451Z,93534.78
2023-04-14T20:09:31.966Z,93539.44
2023-04-14T20:12:03.191Z,93531.84
2023-04-14T20:14:31.885Z,93529.19
2023-04-14T20:17:00.988Z,93539.91
2023-04-14T20:19:29.574Z,93537.50
2023-04-14T20:21:58.036Z,93552.25
2023-04-14T20:24:26.669Z,93550.66
2023-04-14T20:26:55.486Z,93540.22
2023-04-14T20:29:25.409Z,93549.56
2023-04-14T20:31:54.433Z,93544.78
2023-04-14T20:34:22.891Z,93552.91
2023-04-14T20:36:53.287Z,93553.66
2023-04-14T20:39:21.781Z,93560.38
2023-04-14T20:41:51.014Z,93559.78
2023-04-14T20:44:19.471Z,93568.19
2023-04-14T20:46:50.324Z,93566.94
2023-04-14T20:49:18.887Z,93557.59
2023-04-14T20:51:48.944Z,93567.75
2023-04-14T20:54:17.731Z,93569.25
2023-04-14T20:56:46.722Z,93574.69
2023-04-14T20:59:15.176Z,93567.13
2023-04-14T21:01:43.803Z,93573.66
2023-04-14T21:04:13.844Z,93577.22
2023-04-14T21:06:42.364Z,93581.03
2023-04-14T21:09:10.965Z,93575.63
2023-04-14T21:11:39.665Z,93581.44
2023-04-14T21:15:44.230Z,93577.59
2023-04-14T21:17:21.648Z,93566.28
2023-04-14T21:19:52.483Z,93573.09
2023-04-14T21:22:21.141Z,93572.25
2023-04-14T21:24:49.935Z,93577.56
2023-04-14T21:27:18.601Z,93574.44
2023-04-14T21:29:47.011Z,93570.63
2023-04-14T21:32:17.630Z,93565.41
2023-04-14T21:34:46.336Z,93571.53
2023-04-14T21:37:18.680Z,93567.19
2023-04-14T21:39:47.669Z,93572.44
2023-04-14T21:42:16.134Z,93577.16
2023-04-14T21:44:44.766Z,93566.66
2023-04-14T21:47:13.280Z,93571.97
2023-04-14T21:49:45.193Z,93578.59
2023-04-14T21:52:13.679Z,93584.16
2023-04-14T21:54:44.361Z,93588.34
2023-04-14T21:57:13.510Z,93585.81
2023-04-14T21:59:42.027Z,93587.91
2023-04-14T22:02:11.696Z,93574.84
2023-04-14T22:04:41.012Z,93584.03
2023-04-14T22:07:17.170Z,93586.69
2023-04-14T22:09:47.035Z,93588.50
2023-04-14T22:12:15.583Z,93577.53
2023-04-14T22:14:44.010Z,93584.81
2023-04-14T22:17:12.479Z,93577.22
2023-04-14T22:20:06.451Z,93583.25
2023-04-14T22:22:35.247Z,93572.78
2023-04-14T22:25:06.693Z,93585.06
2023-04-14T22:27:35.250Z,93596.28
2023-04-14T22:30:05.034Z,93593.13
2023-04-14T22:32:33.695Z,93592.84
2023-04-14T22:35:02.135Z,93593.88
2023-04-14T22:37:30.687Z,93588.13
2023-04-14T22:40:01.997Z,93595.44
2023-04-14T22:42:32.091Z,93588.41
2023-04-14T22:45:01.453Z,93581.06
2023-04-14T22:47:29.992Z,93581.56
2023-04-14T22:49:58.528Z,93587.59
2023-04-14T22:52:27.934Z,93591.00
2023-04-14T22:54:56.527Z,93595.69
2023-04-14T22:57:25.148Z,93601.72
2023-04-14T22:59:55.007Z,93608.25
2023-04-14T23:02:23.652Z,93597.25
2023-04-14T23:04:52.166Z,93608.53
2023-04-14T23:07:21.110Z,93609.31
2023-04-14T23:09:49.635Z,93602.78
2023-04-14T23:12:43.658Z,93614.50
2023-04-14T23:15:13.590Z,93589.41
2023-04-14T23:17:42.123Z,93580.56
2023-04-14T23:20:11.716Z,93556.78
2023-04-14T23:22:40.704Z,93555.19
2023-04-14T23:25:10.693Z,93562.28
2023-04-14T23:27:39.297Z,93589.72
2023-04-14T23:30:12.989Z,93602.47
2023-04-14T23:32:41.509Z,93600.09
2023-04-14T23:35:10.925Z,93599.34
2023-04-14T23:38:04.834Z,93610.06
2023-04-14T23:40:35.506Z,93605.34
2023-04-14T23:43:03.962Z,93609.25
2023-04-14T23:45:37.333Z,93621.56
2023-04-14T23:48:06.665Z,93621.34
2023-04-14T23:51:00.703Z,93626.06
2023-04-14T23:53:23.980Z,93618.97
2023-04-14T23:55:52.994Z,93610.31
2023-04-14T23:58:26.561Z,93611.09
